Claremont, New Hampshire
Current Conditions -  °F | °C
As of 6:54 PM on Saturday 22 Nov 2014 (Local Time) from KVSF Reporting Station
Overcast Overcast  
Wind Chill: 30°   Ceiling: 4000
Heat Index: 34°   Visibility: 10mi
Dew Point: 17°   Wind: 5mph
Humidity: 50%   Direction: 170°S
Pressure: 30.03"   Gusts: NA
Location:  43.37°N, 72.34°W
Report Text: KVSF 222354Z AUTO 17004KT 10SM BKN040 OVC050 01/M08 A3003 RMK AO2 RAB2258E08 SLP176 P0000 60000 T00111083 10028 20000 56016
Loading
Personal Weather Stations






























Interactive Weather Map New forecast layout! Learn more

10-Day Weather Forecast

Advertisements
Track Severe Weather on mobile